sensor_id;sensor_type;location;lat;lon;timestamp;P1;durP1;ratioP1;P2;durP2;ratioP2
31464;SDS011;18089;47.428;15.006;2022-07-06T00:00:31;13.40;;;12.20;;
31464;SDS011;18089;47.428;15.006;2022-07-06T00:03:03;12.30;;;11.20;;
31464;SDS011;18089;47.428;15.006;2022-07-06T00:05:35;12.93;;;11.63;;
31464;SDS011;18089;47.428;15.006;2022-07-06T00:08:08;12.98;;;11.77;;
31464;SDS011;18089;47.428;15.006;2022-07-06T00:10:41;12.48;;;11.35;;
31464;SDS011;18089;47.428;15.006;2022-07-06T00:13:13;13.20;;;11.80;;
31464;SDS011;18089;47.428;15.006;2022-07-06T00:15:45;12.80;;;11.55;;
31464;SDS011;18089;47.428;15.006;2022-07-06T00:18:17;12.10;;;11.00;;
31464;SDS011;18089;47.428;15.006;2022-07-06T00:20:49;13.20;;;11.93;;
31464;SDS011;18089;47.428;15.006;2022-07-06T00:23:21;14.23;;;12.13;;
31464;SDS011;18089;47.428;15.006;2022-07-06T00:25:55;13.15;;;11.82;;
31464;SDS011;18089;47.428;15.006;2022-07-06T00:28:27;12.73;;;11.50;;
31464;SDS011;18089;47.428;15.006;2022-07-06T00:30:59;12.80;;;11.50;;
31464;SDS011;18089;47.428;15.006;2022-07-06T00:33:31;12.82;;;11.60;;
31464;SDS011;18089;47.428;15.006;2022-07-06T00:36:03;12.20;;;11.10;;
31464;SDS011;18089;47.428;15.006;2022-07-06T00:38:36;13.15;;;12.00;;
31464;SDS011;18089;47.428;15.006;2022-07-06T00:41:09;12.20;;;11.10;;
31464;SDS011;18089;47.428;15.006;2022-07-06T00:43:48;12.80;;;11.50;;
31464;SDS011;18089;47.428;15.006;2022-07-06T00:46:22;13.07;;;12.07;;
31464;SDS011;18089;47.428;15.006;2022-07-06T00:48:57;13.32;;;12.02;;
31464;SDS011;18089;47.428;15.006;2022-07-06T00:51:31;12.98;;;11.35;;
31464;SDS011;18089;47.428;15.006;2022-07-06T00:54:04;12.80;;;11.57;;
31464;SDS011;18089;47.428;15.006;2022-07-06T00:56:37;14.15;;;12.75;;
31464;SDS011;18089;47.428;15.006;2022-07-06T00:59:09;13.45;;;12.23;;
31464;SDS011;18089;47.428;15.006;2022-07-06T01:01:41;13.85;;;12.52;;
31464;SDS011;18089;47.428;15.006;2022-07-06T01:04:13;14.07;;;12.68;;
31464;SDS011;18089;47.428;15.006;2022-07-06T01:06:45;13.23;;;11.68;;
31464;SDS011;18089;47.428;15.006;2022-07-06T01:09:18;14.32;;;13.00;;
31464;SDS011;18089;47.428;15.006;2022-07-06T01:11:51;13.70;;;12.13;;
31464;SDS011;18089;47.428;15.006;2022-07-06T01:14:23;13.77;;;12.35;;
31464;SDS011;18089;47.428;15.006;2022-07-06T01:16:56;12.63;;;11.45;;
31464;SDS011;18089;47.428;15.006;2022-07-06T01:19:28;12.55;;;11.45;;
31464;SDS011;18089;47.428;15.006;2022-07-06T01:22:01;12.93;;;11.65;;
31464;SDS011;18089;47.428;15.006;2022-07-06T01:24:34;13.20;;;11.98;;
31464;SDS011;18089;47.428;15.006;2022-07-06T01:27:07;13.90;;;12.60;;
31464;SDS011;18089;47.428;15.006;2022-07-06T01:29:39;14.48;;;13.13;;
31464;SDS011;18089;47.428;15.006;2022-07-06T01:32:11;13.10;;;12.00;;
31464;SDS011;18089;47.428;15.006;2022-07-06T01:34:43;13.38;;;12.07;;
31464;SDS011;18089;47.428;15.006;2022-07-06T01:37:16;13.65;;;12.45;;
31464;SDS011;18089;47.428;15.006;2022-07-06T01:39:48;14.00;;;12.68;;
31464;SDS011;18089;47.428;15.006;2022-07-06T01:42:20;13.07;;;11.77;;
31464;SDS011;18089;47.428;15.006;2022-07-06T01:44:52;13.15;;;11.95;;
31464;SDS011;18089;47.428;15.006;2022-07-06T01:47:25;12.88;;;11.68;;
31464;SDS011;18089;47.428;15.006;2022-07-06T01:49:57;13.93;;;12.68;;
31464;SDS011;18089;47.428;15.006;2022-07-06T01:52:32;13.48;;;12.38;;
31464;SDS011;18089;47.428;15.006;2022-07-06T01:55:04;12.82;;;11.63;;
31464;SDS011;18089;47.428;15.006;2022-07-06T01:57:36;13.55;;;12.30;;
31464;SDS011;18089;47.428;15.006;2022-07-06T02:00:08;13.55;;;12.18;;
31464;SDS011;18089;47.428;15.006;2022-07-06T02:02:41;13.40;;;12.07;;
31464;SDS011;18089;47.428;15.006;2022-07-06T02:05:13;13.40;;;12.13;;
31464;SDS011;18089;47.428;15.006;2022-07-06T02:07:46;14.10;;;12.70;;
31464;SDS011;18089;47.428;15.006;2022-07-06T02:10:18;13.05;;;11.95;;
31464;SDS011;18089;47.428;15.006;2022-07-06T02:12:50;13.63;;;12.52;;
31464;SDS011;18089;47.428;15.006;2022-07-06T02:15:22;13.32;;;12.23;;
31464;SDS011;18089;47.428;15.006;2022-07-06T02:17:54;12.85;;;11.80;;
31464;SDS011;18089;47.428;15.006;2022-07-06T02:20:26;12.65;;;11.65;;
31464;SDS011;18089;47.428;15.006;2022-07-06T02:23:00;12.73;;;11.52;;
31464;SDS011;18089;47.428;15.006;2022-07-06T02:25:31;13.10;;;12.00;;
31464;SDS011;18089;47.428;15.006;2022-07-06T02:28:04;12.57;;;11.48;;
31464;SDS011;18089;47.428;15.006;2022-07-06T02:30:36;14.45;;;11.70;;
31464;SDS011;18089;47.428;15.006;2022-07-06T02:33:08;12.88;;;11.68;;
31464;SDS011;18089;47.428;15.006;2022-07-06T02:35:40;13.18;;;12.07;;
31464;SDS011;18089;47.428;15.006;2022-07-06T02:38:14;13.75;;;12.38;;
31464;SDS011;18089;47.428;15.006;2022-07-06T02:40:46;12.65;;;11.65;;
31464;SDS011;18089;47.428;15.006;2022-07-06T02:43:18;13.68;;;12.38;;
31464;SDS011;18089;47.428;15.006;2022-07-06T02:45:50;13.50;;;12.13;;
31464;SDS011;18089;47.428;15.006;2022-07-06T02:48:22;14.07;;;12.48;;
31464;SDS011;18089;47.428;15.006;2022-07-06T02:50:54;14.68;;;12.35;;
31464;SDS011;18089;47.428;15.006;2022-07-06T02:53:28;13.48;;;12.05;;
31464;SDS011;18089;47.428;15.006;2022-07-06T02:56:00;13.20;;;12.10;;
31464;SDS011;18089;47.428;15.006;2022-07-06T02:58:32;13.55;;;12.18;;
31464;SDS011;18089;47.428;15.006;2022-07-06T03:01:04;14.07;;;12.68;;
31464;SDS011;18089;47.428;15.006;2022-07-06T03:03:36;14.35;;;12.95;;
31464;SDS011;18089;47.428;15.006;2022-07-06T03:06:08;13.73;;;12.40;;
31464;SDS011;18089;47.428;15.006;2022-07-06T03:08:41;15.88;;;12.48;;
31464;SDS011;18089;47.428;15.006;2022-07-06T03:11:13;12.82;;;11.73;;
31464;SDS011;18089;47.428;15.006;2022-07-06T03:13:45;14.48;;;12.75;;
31464;SDS011;18089;47.428;15.006;2022-07-06T03:16:17;14.57;;;13.25;;
31464;SDS011;18089;47.428;15.006;2022-07-06T03:18:49;13.50;;;12.32;;
31464;SDS011;18089;47.428;15.006;2022-07-06T03:21:21;14.00;;;12.70;;
31464;SDS011;18089;47.428;15.006;2022-07-06T03:23:54;16.85;;;14.40;;
31464;SDS011;18089;47.428;15.006;2022-07-06T03:26:26;15.70;;;14.07;;
31464;SDS011;18089;47.428;15.006;2022-07-06T03:28:58;15.95;;;14.20;;
31464;SDS011;18089;47.428;15.006;2022-07-06T03:31:30;14.52;;;13.02;;
31464;SDS011;18089;47.428;15.006;2022-07-06T03:34:02;14.95;;;12.80;;
31464;SDS011;18089;47.428;15.006;2022-07-06T03:36:34;16.13;;;13.65;;
31464;SDS011;18089;47.428;15.006;2022-07-06T03:39:08;16.40;;;12.68;;
31464;SDS011;18089;47.428;15.006;2022-07-06T03:41:40;15.75;;;14.18;;
31464;SDS011;18089;47.428;15.006;2022-07-06T03:44:12;17.90;;;16.08;;
31464;SDS011;18089;47.428;15.006;2022-07-06T03:46:44;16.92;;;15.43;;
31464;SDS011;18089;47.428;15.006;2022-07-06T03:49:16;15.80;;;14.10;;
31464;SDS011;18089;47.428;15.006;2022-07-06T03:51:48;19.13;;;14.55;;
31464;SDS011;18089;47.428;15.006;2022-07-06T03:54:21;17.33;;;15.30;;
31464;SDS011;18089;47.428;15.006;2022-07-06T03:56:53;16.23;;;14.73;;
31464;SDS011;18089;47.428;15.006;2022-07-06T03:59:25;18.05;;;16.25;;
31464;SDS011;18089;47.428;15.006;2022-07-06T04:01:57;16.85;;;15.30;;
31464;SDS011;18089;47.428;15.006;2022-07-06T04:04:29;16.38;;;14.80;;
31464;SDS011;18089;47.428;15.006;2022-07-06T04:07:01;18.25;;;16.35;;
31464;SDS011;18089;47.428;15.006;2022-07-06T04:09:35;17.42;;;15.45;;
31464;SDS011;18089;47.428;15.006;2022-07-06T04:12:07;17.98;;;14.63;;
31464;SDS011;18089;47.428;15.006;2022-07-06T04:14:39;15.65;;;14.18;;
31464;SDS011;18089;47.428;15.006;2022-07-06T04:17:11;15.50;;;13.98;;
31464;SDS011;18089;47.428;15.006;2022-07-06T04:20:00;19.25;;;14.25;;
31464;SDS011;18089;47.428;15.006;2022-07-06T04:22:33;14.65;;;13.32;;
31464;SDS011;18089;47.428;15.006;2022-07-06T04:25:09;14.68;;;13.40;;
31464;SDS011;18089;47.428;15.006;2022-07-06T04:27:41;20.08;;;16.13;;
31464;SDS011;18089;47.428;15.006;2022-07-06T04:30:13;21.33;;;17.05;;
31464;SDS011;18089;47.428;15.006;2022-07-06T04:32:45;18.90;;;16.92;;
31464;SDS011;18089;47.428;15.006;2022-07-06T04:35:17;17.88;;;16.02;;
31464;SDS011;18089;47.428;15.006;2022-07-06T04:37:49;19.45;;;17.42;;
31464;SDS011;18089;47.428;15.006;2022-07-06T04:40:23;19.40;;;17.50;;
31464;SDS011;18089;47.428;15.006;2022-07-06T04:42:54;15.20;;;13.80;;
31464;SDS011;18089;47.428;15.006;2022-07-06T04:45:27;19.00;;;13.27;;
31464;SDS011;18089;47.428;15.006;2022-07-06T04:47:59;15.52;;;13.55;;
31464;SDS011;18089;47.428;15.006;2022-07-06T04:50:31;15.57;;;12.98;;
31464;SDS011;18089;47.428;15.006;2022-07-06T04:53:03;15.00;;;12.13;;
31464;SDS011;18089;47.428;15.006;2022-07-06T04:55:36;14.60;;;12.27;;
31464;SDS011;18089;47.428;15.006;2022-07-06T04:58:08;12.25;;;9.95;;
31464;SDS011;18089;47.428;15.006;2022-07-06T05:00:40;10.00;;;8.73;;
31464;SDS011;18089;47.428;15.006;2022-07-06T05:03:12;8.07;;;6.60;;
31464;SDS011;18089;47.428;15.006;2022-07-06T05:05:44;8.68;;;7.35;;
31464;SDS011;18089;47.428;15.006;2022-07-06T05:08:16;7.15;;;6.32;;
31464;SDS011;18089;47.428;15.006;2022-07-06T05:10:50;5.82;;;5.22;;
31464;SDS011;18089;47.428;15.006;2022-07-06T05:13:22;5.65;;;4.47;;
31464;SDS011;18089;47.428;15.006;2022-07-06T05:15:54;4.72;;;4.32;;
31464;SDS011;18089;47.428;15.006;2022-07-06T05:18:26;6.10;;;3.75;;
31464;SDS011;18089;47.428;15.006;2022-07-06T05:20:58;4.13;;;3.72;;
31464;SDS011;18089;47.428;15.006;2022-07-06T05:23:30;3.63;;;3.35;;
31464;SDS011;18089;47.428;15.006;2022-07-06T05:26:03;4.55;;;3.80;;
31464;SDS011;18089;47.428;15.006;2022-07-06T05:28:35;4.50;;;3.90;;
31464;SDS011;18089;47.428;15.006;2022-07-06T05:31:07;3.80;;;3.50;;
31464;SDS011;18089;47.428;15.006;2022-07-06T05:33:39;4.10;;;3.53;;
31464;SDS011;18089;47.428;15.006;2022-07-06T05:36:11;4.18;;;3.78;;
31464;SDS011;18089;47.428;15.006;2022-07-06T05:38:43;4.07;;;3.67;;
31464;SDS011;18089;47.428;15.006;2022-07-06T05:41:16;6.22;;;5.60;;
31464;SDS011;18089;47.428;15.006;2022-07-06T05:43:48;5.57;;;4.95;;
31464;SDS011;18089;47.428;15.006;2022-07-06T05:46:20;5.72;;;5.22;;
31464;SDS011;18089;47.428;15.006;2022-07-06T05:48:52;6.18;;;5.15;;
31464;SDS011;18089;47.428;15.006;2022-07-06T05:51:42;6.32;;;4.88;;
31464;SDS011;18089;47.428;15.006;2022-07-06T05:54:14;5.93;;;5.43;;
31464;SDS011;18089;47.428;15.006;2022-07-06T05:56:47;6.00;;;5.35;;
31464;SDS011;18089;47.428;15.006;2022-07-06T05:59:19;6.85;;;5.82;;
31464;SDS011;18089;47.428;15.006;2022-07-06T06:01:51;6.15;;;5.55;;
31464;SDS011;18089;47.428;15.006;2022-07-06T06:04:23;8.18;;;6.25;;
31464;SDS011;18089;47.428;15.006;2022-07-06T06:06:55;6.28;;;5.70;;
31464;SDS011;18089;47.428;15.006;2022-07-06T06:09:27;8.65;;;7.03;;
31464;SDS011;18089;47.428;15.006;2022-07-06T06:12:00;6.90;;;6.28;;
31464;SDS011;18089;47.428;15.006;2022-07-06T06:14:33;6.13;;;5.47;;
31464;SDS011;18089;47.428;15.006;2022-07-06T06:17:04;6.38;;;5.88;;
31464;SDS011;18089;47.428;15.006;2022-07-06T06:19:39;6.50;;;5.35;;
31464;SDS011;18089;47.428;15.006;2022-07-06T06:22:11;6.03;;;5.63;;
31464;SDS011;18089;47.428;15.006;2022-07-06T06:24:43;6.40;;;5.68;;
31464;SDS011;18089;47.428;15.006;2022-07-06T06:27:17;6.20;;;5.60;;
31464;SDS011;18089;47.428;15.006;2022-07-06T06:29:49;10.65;;;6.15;;
31464;SDS011;18089;47.428;15.006;2022-07-06T06:32:21;5.80;;;5.20;;
31464;SDS011;18089;47.428;15.006;2022-07-06T06:34:53;5.13;;;4.63;;
31464;SDS011;18089;47.428;15.006;2022-07-06T06:37:25;4.97;;;4.57;;
31464;SDS011;18089;47.428;15.006;2022-07-06T06:39:57;5.25;;;4.85;;
31464;SDS011;18089;47.428;15.006;2022-07-06T06:42:30;4.43;;;4.03;;
31464;SDS011;18089;47.428;15.006;2022-07-06T06:45:03;3.80;;;3.50;;
31464;SDS011;18089;47.428;15.006;2022-07-06T06:47:36;4.38;;;4.07;;
31464;SDS011;18089;47.428;15.006;2022-07-06T06:50:08;6.72;;;4.40;;
31464;SDS011;18089;47.428;15.006;2022-07-06T06:52:40;4.53;;;3.80;;
31464;SDS011;18089;47.428;15.006;2022-07-06T06:55:12;4.70;;;3.90;;
31464;SDS011;18089;47.428;15.006;2022-07-06T06:57:45;4.35;;;3.58;;
31464;SDS011;18089;47.428;15.006;2022-07-06T07:00:18;7.13;;;3.78;;
31464;SDS011;18089;47.428;15.006;2022-07-06T07:02:50;5.00;;;3.70;;
31464;SDS011;18089;47.428;15.006;2022-07-06T07:05:22;4.53;;;4.13;;
31464;SDS011;18089;47.428;15.006;2022-07-06T07:07:54;5.28;;;3.53;;
31464;SDS011;18089;47.428;15.006;2022-07-06T07:10:28;4.80;;;4.40;;
31464;SDS011;18089;47.428;15.006;2022-07-06T07:13:02;4.97;;;4.30;;
31464;SDS011;18089;47.428;15.006;2022-07-06T07:15:34;5.05;;;3.95;;
31464;SDS011;18089;47.428;15.006;2022-07-06T07:18:06;6.43;;;4.40;;
31464;SDS011;18089;47.428;15.006;2022-07-06T07:20:38;4.30;;;3.90;;
31464;SDS011;18089;47.428;15.006;2022-07-06T07:23:10;4.70;;;3.60;;
31464;SDS011;18089;47.428;15.006;2022-07-06T07:25:42;3.40;;;3.10;;
31464;SDS011;18089;47.428;15.006;2022-07-06T07:28:15;3.90;;;3.60;;
31464;SDS011;18089;47.428;15.006;2022-07-06T07:30:47;3.40;;;3.20;;
31464;SDS011;18089;47.428;15.006;2022-07-06T07:33:20;4.50;;;4.10;;
31464;SDS011;18089;47.428;15.006;2022-07-06T07:35:52;4.50;;;3.60;;
31464;SDS011;18089;47.428;15.006;2022-07-06T07:38:24;3.38;;;3.13;;
31464;SDS011;18089;47.428;15.006;2022-07-06T07:40:56;3.90;;;3.15;;
31464;SDS011;18089;47.428;15.006;2022-07-06T07:43:29;4.03;;;3.60;;
31464;SDS011;18089;47.428;15.006;2022-07-06T07:46:01;4.35;;;3.30;;
31464;SDS011;18089;47.428;15.006;2022-07-06T07:48:33;4.55;;;3.90;;
31464;SDS011;18089;47.428;15.006;2022-07-06T07:51:05;4.15;;;3.80;;
31464;SDS011;18089;47.428;15.006;2022-07-06T07:53:37;4.32;;;3.92;;
31464;SDS011;18089;47.428;15.006;2022-07-06T07:56:09;3.97;;;3.58;;
31464;SDS011;18089;47.428;15.006;2022-07-06T07:58:43;3.60;;;3.30;;
31464;SDS011;18089;47.428;15.006;2022-07-06T08:01:15;5.95;;;3.60;;
31464;SDS011;18089;47.428;15.006;2022-07-06T08:03:47;3.72;;;3.17;;
31464;SDS011;18089;47.428;15.006;2022-07-06T08:06:19;6.97;;;3.30;;
31464;SDS011;18089;47.428;15.006;2022-07-06T08:08:51;3.50;;;3.20;;
31464;SDS011;18089;47.428;15.006;2022-07-06T08:11:23;4.07;;;3.67;;
31464;SDS011;18089;47.428;15.006;2022-07-06T08:13:57;4.82;;;2.78;;
31464;SDS011;18089;47.428;15.006;2022-07-06T08:16:29;4.38;;;2.80;;
31464;SDS011;18089;47.428;15.006;2022-07-06T08:19:01;5.57;;;2.80;;
31464;SDS011;18089;47.428;15.006;2022-07-06T08:21:33;3.85;;;2.70;;
31464;SDS011;18089;47.428;15.006;2022-07-06T08:24:05;2.58;;;2.22;;
31464;SDS011;18089;47.428;15.006;2022-07-06T08:26:38;2.63;;;2.30;;
31464;SDS011;18089;47.428;15.006;2022-07-06T08:29:11;3.53;;;2.30;;
31464;SDS011;18089;47.428;15.006;2022-07-06T08:31:43;3.10;;;2.05;;
31464;SDS011;18089;47.428;15.006;2022-07-06T08:34:15;2.00;;;1.90;;
31464;SDS011;18089;47.428;15.006;2022-07-06T08:36:47;3.08;;;2.20;;
31464;SDS011;18089;47.428;15.006;2022-07-06T08:39:19;2.65;;;2.05;;
31464;SDS011;18089;47.428;15.006;2022-07-06T08:41:51;2.20;;;2.00;;
31464;SDS011;18089;47.428;15.006;2022-07-06T08:44:24;2.30;;;1.80;;
31464;SDS011;18089;47.428;15.006;2022-07-06T08:46:57;2.55;;;2.35;;
31464;SDS011;18089;47.428;15.006;2022-07-06T08:49:29;3.08;;;2.28;;
31464;SDS011;18089;47.428;15.006;2022-07-06T08:52:02;3.85;;;2.10;;
31464;SDS011;18089;47.428;15.006;2022-07-06T08:54:35;2.20;;;1.83;;
31464;SDS011;18089;47.428;15.006;2022-07-06T08:57:09;4.57;;;1.70;;
31464;SDS011;18089;47.428;15.006;2022-07-06T08:59:43;3.25;;;1.60;;
31464;SDS011;18089;47.428;15.006;2022-07-06T09:02:15;5.30;;;1.58;;
31464;SDS011;18089;47.428;15.006;2022-07-06T09:04:47;1.50;;;1.40;;
31464;SDS011;18089;47.428;15.006;2022-07-06T09:07:20;5.63;;;1.30;;
31464;SDS011;18089;47.428;15.006;2022-07-06T09:09:53;2.30;;;1.40;;
31464;SDS011;18089;47.428;15.006;2022-07-06T09:12:27;4.53;;;1.30;;
31464;SDS011;18089;47.428;15.006;2022-07-06T09:15:00;2.05;;;1.10;;
31464;SDS011;18089;47.428;15.006;2022-07-06T09:17:32;3.47;;;1.30;;
31464;SDS011;18089;47.428;15.006;2022-07-06T09:20:05;1.35;;;1.20;;
31464;SDS011;18089;47.428;15.006;2022-07-06T09:22:38;1.92;;;1.35;;
31464;SDS011;18089;47.428;15.006;2022-07-06T09:25:12;2.88;;;1.30;;
31464;SDS011;18089;47.428;15.006;2022-07-06T09:27:46;2.58;;;1.13;;
31464;SDS011;18089;47.428;15.006;2022-07-06T09:30:22;2.35;;;1.15;;
31464;SDS011;18089;47.428;15.006;2022-07-06T09:32:55;1.83;;;1.30;;
31464;SDS011;18089;47.428;15.006;2022-07-06T09:35:28;1.20;;;1.10;;
31464;SDS011;18089;47.428;15.006;2022-07-06T09:38:02;1.17;;;1.08;;
31464;SDS011;18089;47.428;15.006;2022-07-06T09:40:36;3.17;;;1.40;;
31464;SDS011;18089;47.428;15.006;2022-07-06T09:43:12;2.63;;;1.20;;
31464;SDS011;18089;47.428;15.006;2022-07-06T09:45:48;2.65;;;1.30;;
31464;SDS011;18089;47.428;15.006;2022-07-06T09:48:21;2.08;;;1.30;;
31464;SDS011;18089;47.428;15.006;2022-07-06T09:50:55;1.40;;;1.27;;
31464;SDS011;18089;47.428;15.006;2022-07-06T09:53:27;1.73;;;1.40;;
31464;SDS011;18089;47.428;15.006;2022-07-06T09:56:00;2.22;;;1.38;;
31464;SDS011;18089;47.428;15.006;2022-07-06T09:58:34;1.77;;;1.58;;
31464;SDS011;18089;47.428;15.006;2022-07-06T10:01:11;1.48;;;1.33;;
31464;SDS011;18089;47.428;15.006;2022-07-06T10:03:43;2.42;;;1.50;;
31464;SDS011;18089;47.428;15.006;2022-07-06T10:06:15;1.70;;;1.60;;
31464;SDS011;18089;47.428;15.006;2022-07-06T10:08:47;2.30;;;2.03;;
31464;SDS011;18089;47.428;15.006;2022-07-06T10:11:19;6.40;;;2.03;;
31464;SDS011;18089;47.428;15.006;2022-07-06T10:13:52;3.67;;;1.90;;
31464;SDS011;18089;47.428;15.006;2022-07-06T10:16:27;2.30;;;2.10;;
31464;SDS011;18089;47.428;15.006;2022-07-06T10:18:59;2.72;;;1.92;;
31464;SDS011;18089;47.428;15.006;2022-07-06T10:21:34;2.47;;;1.70;;
31464;SDS011;18089;47.428;15.006;2022-07-06T10:24:08;1.77;;;1.65;;
31464;SDS011;18089;47.428;15.006;2022-07-06T10:26:41;2.15;;;1.65;;
31464;SDS011;18089;47.428;15.006;2022-07-06T10:29:14;1.55;;;1.35;;
31464;SDS011;18089;47.428;15.006;2022-07-06T10:31:47;2.22;;;1.35;;
31464;SDS011;18089;47.428;15.006;2022-07-06T10:34:21;2.05;;;1.48;;
31464;SDS011;18089;47.428;15.006;2022-07-06T10:36:53;2.08;;;1.08;;
31464;SDS011;18089;47.428;15.006;2022-07-06T10:39:32;2.30;;;1.00;;
31464;SDS011;18089;47.428;15.006;2022-07-06T10:42:41;1.05;;;1.00;;
31464;SDS011;18089;47.428;15.006;2022-07-06T10:45:14;1.98;;;1.30;;
31464;SDS011;18089;47.428;15.006;2022-07-06T10:47:50;1.55;;;1.20;;
31464;SDS011;18089;47.428;15.006;2022-07-06T10:50:49;1.67;;;1.20;;
31464;SDS011;18089;47.428;15.006;2022-07-06T10:53:22;2.60;;;1.27;;
31464;SDS011;18089;47.428;15.006;2022-07-06T10:55:55;1.90;;;1.30;;
31464;SDS011;18089;47.428;15.006;2022-07-06T10:58:34;1.55;;;1.38;;
31464;SDS011;18089;47.428;15.006;2022-07-06T11:01:08;1.45;;;1.20;;
31464;SDS011;18089;47.428;15.006;2022-07-06T11:03:42;1.70;;;1.35;;
31464;SDS011;18089;47.428;15.006;2022-07-06T11:06:16;2.08;;;1.33;;
31464;SDS011;18089;47.428;15.006;2022-07-06T11:08:52;2.55;;;1.20;;
31464;SDS011;18089;47.428;15.006;2022-07-06T11:11:26;21.20;;;3.55;;
31464;SDS011;18089;47.428;15.006;2022-07-06T11:14:11;1.98;;;1.10;;
31464;SDS011;18089;47.428;15.006;2022-07-06T11:17:01;2.53;;;1.30;;
31464;SDS011;18089;47.428;15.006;2022-07-06T11:19:36;3.28;;;1.38;;
31464;SDS011;18089;47.428;15.006;2022-07-06T11:22:08;3.78;;;1.45;;
31464;SDS011;18089;47.428;15.006;2022-07-06T11:24:41;1.40;;;1.20;;
31464;SDS011;18089;47.428;15.006;2022-07-06T11:27:13;1.27;;;1.20;;
31464;SDS011;18089;47.428;15.006;2022-07-06T11:29:45;1.40;;;1.30;;
31464;SDS011;18089;47.428;15.006;2022-07-06T11:32:20;1.95;;;1.23;;
31464;SDS011;18089;47.428;15.006;2022-07-06T11:34:56;1.30;;;1.20;;
31464;SDS011;18089;47.428;15.006;2022-07-06T11:37:28;2.75;;;1.20;;
31464;SDS011;18089;47.428;15.006;2022-07-06T11:40:05;3.13;;;1.30;;
31464;SDS011;18089;47.428;15.006;2022-07-06T11:42:38;2.92;;;1.20;;
31464;SDS011;18089;47.428;15.006;2022-07-06T11:45:11;1.80;;;1.00;;
31464;SDS011;18089;47.428;15.006;2022-07-06T11:47:43;1.77;;;1.20;;
31464;SDS011;18089;47.428;15.006;2022-07-06T11:50:20;1.42;;;1.10;;
31464;SDS011;18089;47.428;15.006;2022-07-06T11:52:52;1.73;;;1.10;;
31464;SDS011;18089;47.428;15.006;2022-07-06T11:55:24;2.97;;;1.20;;
31464;SDS011;18089;47.428;15.006;2022-07-06T11:57:56;2.28;;;1.08;;
31464;SDS011;18089;47.428;15.006;2022-07-06T12:00:29;2.03;;;1.10;;
31464;SDS011;18089;47.428;15.006;2022-07-06T12:03:01;1.88;;;1.10;;
31464;SDS011;18089;47.428;15.006;2022-07-06T12:05:35;1.85;;;1.20;;
31464;SDS011;18089;47.428;15.006;2022-07-06T12:08:07;4.50;;;1.15;;
31464;SDS011;18089;47.428;15.006;2022-07-06T12:10:39;1.20;;;1.10;;
31464;SDS011;18089;47.428;15.006;2022-07-06T12:13:11;1.27;;;1.17;;
31464;SDS011;18089;47.428;15.006;2022-07-06T12:15:43;2.25;;;1.20;;
31464;SDS011;18089;47.428;15.006;2022-07-06T12:18:15;2.15;;;1.38;;
31464;SDS011;18089;47.428;15.006;2022-07-06T12:20:49;1.20;;;1.10;;
31464;SDS011;18089;47.428;15.006;2022-07-06T12:23:21;3.35;;;1.50;;
31464;SDS011;18089;47.428;15.006;2022-07-06T12:25:53;2.67;;;1.20;;
31464;SDS011;18089;47.428;15.006;2022-07-06T12:28:26;1.38;;;1.00;;
31464;SDS011;18089;47.428;15.006;2022-07-06T12:30:58;1.45;;;1.20;;
31464;SDS011;18089;47.428;15.006;2022-07-06T12:33:29;2.65;;;1.08;;
31464;SDS011;18089;47.428;15.006;2022-07-06T12:36:13;2.05;;;1.20;;
31464;SDS011;18089;47.428;15.006;2022-07-06T12:38:46;1.60;;;1.40;;
31464;SDS011;18089;47.428;15.006;2022-07-06T12:41:29;5.13;;;3.08;;
31464;SDS011;18089;47.428;15.006;2022-07-06T12:44:04;2.80;;;1.55;;
31464;SDS011;18089;47.428;15.006;2022-07-06T12:46:38;2.97;;;1.63;;
31464;SDS011;18089;47.428;15.006;2022-07-06T12:49:12;1.50;;;1.40;;
31464;SDS011;18089;47.428;15.006;2022-07-06T12:51:50;3.67;;;2.88;;
31464;SDS011;18089;47.428;15.006;2022-07-06T12:54:24;2.90;;;1.27;;
31464;SDS011;18089;47.428;15.006;2022-07-06T12:56:58;7.78;;;4.47;;
31464;SDS011;18089;47.428;15.006;2022-07-06T12:59:41;1.73;;;1.60;;
31464;SDS011;18089;47.428;15.006;2022-07-06T13:02:19;2.67;;;1.42;;
31464;SDS011;18089;47.428;15.006;2022-07-06T13:04:56;2.53;;;1.50;;
31464;SDS011;18089;47.428;15.006;2022-07-06T13:07:30;5.70;;;4.78;;
31464;SDS011;18089;47.428;15.006;2022-07-06T13:10:06;5.10;;;1.45;;
31464;SDS011;18089;47.428;15.006;2022-07-06T13:12:39;2.85;;;1.50;;
31464;SDS011;18089;47.428;15.006;2022-07-06T13:15:11;3.38;;;1.35;;
31464;SDS011;18089;47.428;15.006;2022-07-06T13:17:43;1.45;;;1.35;;
31464;SDS011;18089;47.428;15.006;2022-07-06T13:20:16;1.48;;;1.20;;
31464;SDS011;18089;47.428;15.006;2022-07-06T13:22:50;1.73;;;1.20;;
31464;SDS011;18089;47.428;15.006;2022-07-06T13:25:22;3.05;;;1.23;;
31464;SDS011;18089;47.428;15.006;2022-07-06T13:27:54;1.10;;;1.00;;
31464;SDS011;18089;47.428;15.006;2022-07-06T13:30:26;1.55;;;1.17;;
31464;SDS011;18089;47.428;15.006;2022-07-06T13:32:58;2.22;;;1.00;;
31464;SDS011;18089;47.428;15.006;2022-07-06T13:35:30;3.17;;;1.30;;
31464;SDS011;18089;47.428;15.006;2022-07-06T13:38:04;2.00;;;1.27;;
31464;SDS011;18089;47.428;15.006;2022-07-06T13:40:36;1.73;;;1.30;;
31464;SDS011;18089;47.428;15.006;2022-07-06T13:43:08;1.40;;;1.30;;
31464;SDS011;18089;47.428;15.006;2022-07-06T13:45:40;3.90;;;1.30;;
31464;SDS011;18089;47.428;15.006;2022-07-06T13:48:12;1.30;;;1.20;;
31464;SDS011;18089;47.428;15.006;2022-07-06T13:50:44;2.53;;;1.40;;
31464;SDS011;18089;47.428;15.006;2022-07-06T13:53:17;2.10;;;1.20;;
31464;SDS011;18089;47.428;15.006;2022-07-06T13:55:50;2.17;;;1.30;;
31464;SDS011;18089;47.428;15.006;2022-07-06T13:58:22;4.32;;;1.20;;
31464;SDS011;18089;47.428;15.006;2022-07-06T14:00:54;2.72;;;1.20;;
31464;SDS011;18089;47.428;15.006;2022-07-06T14:03:26;1.77;;;1.10;;
31464;SDS011;18089;47.428;15.006;2022-07-06T14:06:00;1.42;;;1.20;;
31464;SDS011;18089;47.428;15.006;2022-07-06T14:08:34;2.10;;;1.00;;
31464;SDS011;18089;47.428;15.006;2022-07-06T14:11:07;2.05;;;1.30;;
31464;SDS011;18089;47.428;15.006;2022-07-06T14:13:39;1.05;;;1.00;;
31464;SDS011;18089;47.428;15.006;2022-07-06T14:16:11;1.42;;;1.27;;
31464;SDS011;18089;47.428;15.006;2022-07-06T14:18:44;1.85;;;1.27;;
31464;SDS011;18089;47.428;15.006;2022-07-06T14:21:16;1.45;;;1.30;;
31464;SDS011;18089;47.428;15.006;2022-07-06T14:23:50;1.20;;;1.08;;
31464;SDS011;18089;47.428;15.006;2022-07-06T14:26:22;1.30;;;1.20;;
31464;SDS011;18089;47.428;15.006;2022-07-06T14:28:54;4.50;;;1.17;;
31464;SDS011;18089;47.428;15.006;2022-07-06T14:31:26;1.92;;;1.10;;
31464;SDS011;18089;47.428;15.006;2022-07-06T14:33:58;3.53;;;1.30;;
31464;SDS011;18089;47.428;15.006;2022-07-06T14:36:30;2.05;;;1.30;;
31464;SDS011;18089;47.428;15.006;2022-07-06T14:39:05;1.52;;;1.25;;
31464;SDS011;18089;47.428;15.006;2022-07-06T14:41:37;1.33;;;1.23;;
31464;SDS011;18089;47.428;15.006;2022-07-06T14:44:09;1.85;;;1.27;;
31464;SDS011;18089;47.428;15.006;2022-07-06T14:46:41;2.53;;;1.42;;
31464;SDS011;18089;47.428;15.006;2022-07-06T14:49:13;3.40;;;1.35;;
31464;SDS011;18089;47.428;15.006;2022-07-06T14:51:45;1.83;;;1.33;;
31464;SDS011;18089;47.428;15.006;2022-07-06T14:54:18;2.65;;;1.60;;
31464;SDS011;18089;47.428;15.006;2022-07-06T14:56:50;2.30;;;1.67;;
31464;SDS011;18089;47.428;15.006;2022-07-06T14:59:23;6.65;;;1.95;;